createdAt,value
2024-04-16T00:01:25.141Z,99337.19
2024-04-16T00:03:52.597Z,99337.16
2024-04-16T00:06:19.985Z,99348.38
2024-04-16T00:08:49.843Z,99335.81
2024-04-16T00:11:17.187Z,99338.63
2024-04-16T00:13:44.529Z,99333.25
2024-04-16T00:16:11.929Z,99342.09
2024-04-16T00:18:39.273Z,99343.09
2024-04-16T00:21:06.893Z,99345.44
2024-04-16T00:23:34.211Z,99331.47
2024-04-16T00:26:01.546Z,99338.72
2024-04-16T00:28:29.997Z,99341.31
2024-04-16T00:30:57.480Z,99335.97
2024-04-16T00:33:24.830Z,99327.44
2024-04-16T00:35:52.169Z,99343.13
2024-04-16T00:38:19.567Z,99348.25
2024-04-16T00:40:46.889Z,99334.38
2024-04-16T00:43:18.546Z,99340.25
2024-04-16T00:45:56.318Z,99352.38
2024-04-16T00:48:30.551Z,99339.06
2024-04-16T00:50:58.730Z,99353.75
2024-04-16T00:53:26.777Z,99352.28
2024-04-16T00:55:54.243Z,99349.53
2024-04-16T00:58:22.063Z,99340.94
2024-04-16T01:00:49.458Z,99352.25
2024-04-16T01:03:16.779Z,99353.88
2024-04-16T01:05:44.273Z,99354.06
2024-04-16T01:08:11.988Z,99346.22
2024-04-16T01:10:43.452Z,99353.59
2024-04-16T01:13:11.063Z,99357.78
2024-04-16T01:15:38.465Z,99363.59
2024-04-16T01:18:08.376Z,99358.09
2024-04-16T01:20:36.203Z,99366.59
2024-04-16T01:23:03.623Z,99362.09
2024-04-16T01:25:33.297Z,99360.63
2024-04-16T01:28:00.839Z,99359.41
2024-04-16T01:30:28.368Z,99354.38
2024-04-16T01:32:55.767Z,99353.72
2024-04-16T01:35:23.159Z,99361.81
2024-04-16T01:37:50.452Z,99357.34
2024-04-16T01:40:17.847Z,99351.63
2024-04-16T01:42:45.171Z,99355.22
2024-04-16T01:45:12.452Z,99362.16
2024-04-16T01:47:39.818Z,99360.69
2024-04-16T01:50:07.302Z,99362.63
2024-04-16T01:52:37.786Z,99368.09
2024-04-16T01:55:05.351Z,99366.53
2024-04-16T01:57:32.699Z,99369.97
2024-04-16T02:00:00.070Z,99361.25
2024-04-16T02:02:27.888Z,99360.53
2024-04-16T02:04:56.803Z,99362.13
2024-04-16T02:07:24.886Z,99360.53
2024-04-16T02:09:52.313Z,99362.22
2024-04-16T02:12:19.606Z,99355.13
2024-04-16T02:14:46.908Z,99357.03
2024-04-16T02:17:14.256Z,99359.00
2024-04-16T02:19:42.385Z,99357.63
2024-04-16T02:22:09.789Z,99357.56
2024-04-16T02:24:37.294Z,99363.50
2024-04-16T02:27:04.907Z,99369.66
2024-04-16T02:29:32.287Z,99358.72
2024-04-16T02:31:59.617Z,99360.78
2024-04-16T02:34:26.996Z,99361.78
2024-04-16T02:36:54.288Z,99359.28
2024-04-16T02:39:21.676Z,99357.00
2024-04-16T02:41:49.024Z,99358.25
2024-04-16T02:44:16.345Z,99354.09
2024-04-16T02:46:43.694Z,99351.59
2024-04-16T02:49:11.023Z,99351.38
2024-04-16T02:51:38.710Z,99362.47
2024-04-16T02:54:06.302Z,99349.91
2024-04-16T02:56:33.631Z,99350.44
2024-04-16T02:59:00.984Z,99350.13
2024-04-16T03:01:28.871Z,99349.72
2024-04-16T03:03:59.899Z,99339.13
2024-04-16T03:06:27.269Z,99345.09
2024-04-16T03:08:54.620Z,99344.06
2024-04-16T03:11:22.006Z,99337.88
2024-04-16T03:13:49.349Z,99333.31
2024-04-16T03:16:16.734Z,99335.06
2024-04-16T03:18:46.310Z,99331.44
2024-04-16T03:21:13.659Z,99333.22
2024-04-16T03:23:40.987Z,99337.75
2024-04-16T03:26:08.300Z,99337.88
2024-04-16T03:28:35.713Z,99333.56
2024-04-16T03:31:03.089Z,99334.44
2024-04-16T03:33:31.048Z,99334.56
2024-04-16T03:35:58.463Z,99335.25
2024-04-16T03:38:25.777Z,99332.47
2024-04-16T03:40:58.121Z,99340.44
2024-04-16T03:43:25.957Z,99338.69
2024-04-16T03:45:56.978Z,99339.44
2024-04-16T03:48:25.199Z,99335.88
2024-04-16T03:50:52.961Z,99340.81
2024-04-16T03:53:20.450Z,99334.69
2024-04-16T03:55:50.394Z,99337.19
2024-04-16T03:58:17.717Z,99348.22
2024-04-16T04:01:03.744Z,99335.91
2024-04-16T04:03:31.923Z,99339.31
2024-04-16T04:05:59.619Z,99334.81
2024-04-16T04:08:27.323Z,99336.47
2024-04-16T04:10:54.988Z,99341.81
2024-04-16T04:13:22.532Z,99343.25
2024-04-16T04:15:49.844Z,99336.16
2024-04-16T04:18:17.297Z,99337.13
2024-04-16T04:20:47.648Z,99333.84
2024-04-16T04:23:15.526Z,99340.88
2024-04-16T04:25:43.061Z,99329.97
2024-04-16T04:28:10.475Z,99326.34
2024-04-16T04:30:38.288Z,99328.84
2024-04-16T04:33:05.697Z,99334.69
2024-04-16T04:35:33.175Z,99330.31
2024-04-16T04:38:00.607Z,99337.31
2024-04-16T04:40:27.992Z,99343.53
2024-04-16T04:42:56.431Z,99342.22
2024-04-16T04:45:23.799Z,99345.75
2024-04-16T04:47:51.219Z,99346.75
2024-04-16T04:50:18.566Z,99342.28
2024-04-16T04:52:45.955Z,99346.63
2024-04-16T04:55:13.358Z,99352.41
2024-04-16T04:57:42.816Z,99349.91
2024-04-16T05:00:10.825Z,99350.13
2024-04-16T05:02:38.193Z,99350.88
2024-04-16T05:05:05.804Z,99357.00
2024-04-16T05:07:33.284Z,99355.22
2024-04-16T05:10:00.648Z,99362.59
2024-04-16T05:12:27.998Z,99354.69
2024-04-16T05:14:55.335Z,99354.97
2024-04-16T05:17:22.878Z,99357.59
2024-04-16T05:19:50.249Z,99350.53
2024-04-16T05:22:17.626Z,99353.72
2024-04-16T05:24:44.998Z,99351.38
2024-04-16T05:27:12.310Z,99355.88
2024-04-16T05:29:39.660Z,99339.47
2024-04-16T05:32:09.192Z,99347.44
2024-04-16T05:34:36.626Z,99348.59
2024-04-16T05:37:05.063Z,99345.34
2024-04-16T05:39:32.476Z,99346.59
2024-04-16T05:41:59.860Z,99347.59
2024-04-16T05:44:27.237Z,99347.50
2024-04-16T05:46:56.191Z,99353.00
2024-04-16T05:49:23.666Z,99353.88
2024-04-16T05:51:50.994Z,99356.56
2024-04-16T05:54:18.405Z,99355.66
2024-04-16T05:56:45.823Z,99351.81
2024-04-16T05:59:13.214Z,99357.78
2024-04-16T06:01:40.568Z,99356.50
2024-04-16T06:04:07.983Z,99357.28
2024-04-16T06:06:35.347Z,99349.81
2024-04-16T06:09:02.648Z,99354.31
2024-04-16T06:11:31.899Z,99361.13
2024-04-16T06:13:59.955Z,99362.31
2024-04-16T06:16:30.453Z,99361.16
2024-04-16T06:18:57.857Z,99361.53
2024-04-16T06:21:25.177Z,99348.50
2024-04-16T06:23:52.492Z,99357.91
2024-04-16T06:26:19.802Z,99353.53
2024-04-16T06:28:47.214Z,99354.00
2024-04-16T06:31:17.003Z,99349.69
2024-04-16T06:33:44.768Z,99346.41
2024-04-16T06:36:12.176Z,99354.56
2024-04-16T06:38:39.475Z,99352.56
2024-04-16T06:41:06.787Z,99343.53
2024-04-16T06:43:34.231Z,99357.44
2024-04-16T06:46:01.708Z,99357.31
2024-04-16T06:48:31.905Z,99358.50
2024-04-16T06:50:59.378Z,99356.59
2024-04-16T06:53:26.683Z,99357.53
2024-04-16T06:56:04.128Z,99340.53
2024-04-16T06:58:31.788Z,99347.59
2024-04-16T07:00:59.315Z,99342.84
2024-04-16T07:03:26.693Z,99345.53
2024-04-16T07:05:54.094Z,99345.69
2024-04-16T07:08:21.450Z,99350.88
2024-04-16T07:10:48.810Z,99348.78
2024-04-16T07:13:19.765Z,99349.00
2024-04-16T07:15:47.550Z,99342.53
2024-04-16T07:18:15.246Z,99340.84
2024-04-16T07:20:51.831Z,99340.41
2024-04-16T07:23:19.177Z,99343.75
2024-04-16T07:25:48.071Z,99348.22
2024-04-16T07:28:15.526Z,99351.31
2024-04-16T07:30:43.101Z,99338.97
2024-04-16T07:33:10.994Z,99353.81
2024-04-16T07:35:38.487Z,99348.59
2024-04-16T07:38:05.891Z,99348.91
2024-04-16T07:40:33.388Z,99354.16
2024-04-16T07:43:01.793Z,99363.50
2024-04-16T07:45:29.095Z,99372.16
2024-04-16T07:47:56.562Z,99375.41
2024-04-16T07:50:24.063Z,99379.34
2024-04-16T07:52:51.396Z,99384.84
2024-04-16T07:55:18.735Z,99381.94
2024-04-16T07:57:46.059Z,99382.78
2024-04-16T08:00:13.873Z,99385.16
2024-04-16T08:02:41.242Z,99380.59
2024-04-16T08:05:08.611Z,99387.53
2024-04-16T08:07:37.341Z,99380.50
2024-04-16T08:10:05.059Z,99383.28
2024-04-16T08:12:32.437Z,99382.94
2024-04-16T08:15:00.846Z,99384.16
2024-04-16T08:17:28.258Z,99393.66
2024-04-16T08:19:55.663Z,99394.72
2024-04-16T08:22:23.349Z,99393.41
2024-04-16T08:24:53.894Z,99396.47
2024-04-16T08:27:24.852Z,99400.63
2024-04-16T08:29:55.347Z,99405.44
2024-04-16T08:32:22.966Z,99402.78
2024-04-16T08:34:50.444Z,99405.25
2024-04-16T08:37:17.867Z,99399.91
2024-04-16T08:39:45.224Z,99402.41
2024-04-16T08:42:13.737Z,99400.13
2024-04-16T08:44:42.892Z,99395.22
2024-04-16T08:47:11.380Z,99396.47
2024-04-16T08:49:42.910Z,99392.34
2024-04-16T08:52:11.433Z,99386.22
2024-04-16T08:54:39.682Z,99389.91
2024-04-16T08:57:07.034Z,99401.28
2024-04-16T08:59:35.401Z,99400.75
2024-04-16T09:02:03.096Z,99404.16
2024-04-16T09:04:31.054Z,99406.41
2024-04-16T09:06:58.458Z,99396.09
2024-04-16T09:09:25.766Z,99404.84
2024-04-16T09:11:54.297Z,99396.84
2024-04-16T09:14:21.898Z,99399.34
2024-04-16T09:16:49.789Z,99409.78
2024-04-16T09:19:18.806Z,99413.06
2024-04-16T09:21:46.124Z,99401.56
2024-04-16T09:24:15.074Z,99409.56
2024-04-16T09:26:42.398Z,99426.91
2024-04-16T09:29:10.140Z,99425.38
2024-04-16T09:31:37.668Z,99431.88
2024-04-16T09:34:08.950Z,99434.94
2024-04-16T09:36:36.678Z,99430.00
2024-04-16T09:39:04.684Z,99427.78
2024-04-16T09:41:32.376Z,99436.25
2024-04-16T09:44:00.411Z,99420.19
2024-04-16T09:46:28.881Z,99427.81
2024-04-16T09:48:58.924Z,99415.41
2024-04-16T09:51:26.576Z,99418.06
2024-04-16T09:53:54.541Z,99425.03
2024-04-16T09:56:22.138Z,99413.72
2024-04-16T09:58:54.778Z,99421.75
2024-04-16T10:01:22.522Z,99419.03
2024-04-16T10:03:50.489Z,99417.81
2024-04-16T10:06:17.850Z,99419.53
2024-04-16T10:08:45.190Z,99421.22
2024-04-16T10:11:17.913Z,99419.78
2024-04-16T10:13:54.965Z,99431.81
2024-04-16T10:16:22.338Z,99418.72
2024-04-16T10:18:56.251Z,99414.47
2024-04-16T10:21:25.023Z,99409.97
2024-04-16T10:24:08.826Z,99404.63
2024-04-16T10:26:43.508Z,99412.63
2024-04-16T10:29:15.271Z,99421.84
2024-04-16T10:31:45.202Z,99407.16
2024-04-16T10:34:30.933Z,99418.72
2024-04-16T10:36:58.694Z,99420.31
2024-04-16T10:39:30.560Z,99421.88
2024-04-16T10:42:02.703Z,99423.66
2024-04-16T10:44:31.069Z,99425.47
2024-04-16T10:46:59.299Z,99420.50
2024-04-16T10:49:28.594Z,99413.91
2024-04-16T10:51:56.022Z,99417.84
2024-04-16T10:54:23.395Z,99421.34
2024-04-16T10:56:51.496Z,99419.16
2024-04-16T10:59:19.995Z,99422.72
2024-04-16T11:01:48.220Z,99414.69
2024-04-16T11:04:20.677Z,99422.38
2024-04-16T11:06:48.892Z,99416.66
2024-04-16T11:09:16.877Z,99416.31
2024-04-16T11:11:45.176Z,99421.34
2024-04-16T11:14:12.952Z,99427.66
2024-04-16T11:16:42.469Z,99421.63
2024-04-16T11:19:10.463Z,99429.16
2024-04-16T11:21:38.046Z,99419.28
2024-04-16T11:24:05.741Z,99412.91
2024-04-16T11:26:33.058Z,99420.25
2024-04-16T11:29:00.398Z,99423.84
2024-04-16T11:31:27.768Z,99420.13
2024-04-16T11:33:56.208Z,99419.94
2024-04-16T11:36:23.788Z,99420.81
2024-04-16T11:38:56.303Z,99416.81
2024-04-16T11:41:24.409Z,99424.56
2024-04-16T11:43:51.949Z,99417.78
2024-04-16T11:46:19.459Z,99422.44
2024-04-16T11:48:47.045Z,99424.44
2024-04-16T11:51:14.410Z,99425.72
2024-04-16T11:53:41.907Z,99431.50
2024-04-16T11:56:12.739Z,99433.03
2024-04-16T11:58:41.348Z,99434.94
2024-04-16T12:01:09.944Z,99435.50
2024-04-16T12:03:37.538Z,99434.91
2024-04-16T12:06:05.289Z,99438.09
2024-04-16T12:08:32.591Z,99455.78
2024-04-16T12:11:00.239Z,99452.22
2024-04-16T12:13:27.740Z,99459.84
2024-04-16T12:15:55.072Z,99456.16
2024-04-16T12:18:22.457Z,99466.69
2024-04-16T12:20:49.923Z,99464.63
2024-04-16T12:23:17.538Z,99458.84
2024-04-16T12:25:46.649Z,99456.38
2024-04-16T12:28:15.520Z,99457.16
2024-04-16T12:30:42.847Z,99448.50
2024-04-16T12:33:15.671Z,99446.28
2024-04-16T12:35:44.545Z,99449.03
2024-04-16T12:38:11.897Z,99454.81
2024-04-16T12:40:39.557Z,99456.66
2024-04-16T12:43:07.008Z,99441.44
2024-04-16T12:45:34.307Z,99454.78
2024-04-16T12:48:01.707Z,99443.38
2024-04-16T12:50:29.118Z,99445.44
2024-04-16T12:52:56.424Z,99432.31
2024-04-16T12:55:23.847Z,99427.97
2024-04-16T12:57:51.918Z,99419.91
2024-04-16T13:00:19.345Z,99429.41
2024-04-16T13:02:49.575Z,99420.34
2024-04-16T13:05:21.121Z,99433.59
2024-04-16T13:07:48.665Z,99424.81
2024-04-16T13:10:16.307Z,99422.16
2024-04-16T13:12:43.742Z,99423.81
2024-04-16T13:15:11.116Z,99422.09
2024-04-16T13:17:38.580Z,99421.41
2024-04-16T13:20:06.667Z,99419.22
2024-04-16T13:22:34.279Z,99415.06
2024-04-16T13:25:01.784Z,99420.78
2024-04-16T13:27:29.114Z,99413.28
2024-04-16T13:29:56.444Z,99413.50
2024-04-16T13:32:23.948Z,99417.53
2024-04-16T13:34:53.397Z,99415.75
2024-04-16T13:37:22.199Z,99421.19
2024-04-16T13:39:49.673Z,99413.66
2024-04-16T13:42:17.169Z,99416.22
2024-04-16T13:44:44.453Z,99420.16
2024-04-16T13:47:11.827Z,99414.00
2024-04-16T13:49:39.250Z,99408.84
2024-04-16T13:52:06.616Z,99415.81
2024-04-16T13:54:33.945Z,99418.53
2024-04-16T13:57:01.244Z,99431.84
2024-04-16T13:59:30.037Z,99431.75
2024-04-16T14:01:58.781Z,99429.22
2024-04-16T14:04:26.808Z,99430.81
2024-04-16T14:06:54.162Z,99435.19
2024-04-16T14:09:24.986Z,99446.22
2024-04-16T14:11:52.615Z,99442.00
2024-04-16T14:14:20.534Z,99438.22
2024-04-16T14:16:47.993Z,99437.19
2024-04-16T14:19:17.463Z,99438.22
2024-04-16T14:21:46.167Z,99435.56
2024-04-16T14:24:13.892Z,99435.00
2024-04-16T14:26:41.261Z,99424.75
2024-04-16T14:29:08.733Z,99428.59
2024-04-16T14:31:36.115Z,99436.72
2024-04-16T14:34:03.512Z,99427.66
2024-04-16T14:36:30.853Z,99429.44
2024-04-16T14:38:58.193Z,99428.22
2024-04-16T14:41:25.585Z,99424.56
2024-04-16T14:43:53.100Z,99429.16
2024-04-16T14:46:20.624Z,99434.06
2024-04-16T14:48:47.979Z,99420.22
2024-04-16T14:51:15.274Z,99429.91
2024-04-16T14:53:47.490Z,99421.56
2024-04-16T14:56:18.103Z,99424.66
2024-04-16T14:58:45.501Z,99425.50
2024-04-16T15:01:12.977Z,99422.97
2024-04-16T15:03:40.372Z,99423.53
2024-04-16T15:06:08.215Z,99430.75
2024-04-16T15:08:35.572Z,99422.88
2024-04-16T15:11:03.035Z,99426.16
2024-04-16T15:13:30.388Z,99430.78
2024-04-16T15:15:58.563Z,99438.41
2024-04-16T15:18:26.554Z,99436.72
2024-04-16T15:20:54.345Z,99439.63
2024-04-16T15:23:21.691Z,99445.00
2024-04-16T15:25:49.210Z,99448.38
2024-04-16T15:28:17.097Z,99445.19
2024-04-16T15:30:44.511Z,99448.19
2024-04-16T15:33:11.927Z,99439.66
2024-04-16T15:35:50.239Z,99444.34
2024-04-16T15:38:18.283Z,99446.22
2024-04-16T15:40:45.788Z,99443.59
2024-04-16T15:43:16.710Z,99447.00
2024-04-16T15:45:45.546Z,99444.91
2024-04-16T15:48:13.161Z,99453.84
2024-04-16T15:50:41.291Z,99448.97
2024-04-16T15:53:08.966Z,99453.47
2024-04-16T15:55:36.515Z,99454.31
2024-04-16T15:58:03.923Z,99451.59
2024-04-16T16:00:31.310Z,99454.91
2024-04-16T16:02:58.680Z,99454.03
2024-04-16T16:05:26.122Z,99460.72
2024-04-16T16:07:53.628Z,99466.00
2024-04-16T16:10:21.051Z,99458.38
2024-04-16T16:12:48.401Z,99477.28
2024-04-16T16:15:16.414Z,99475.00
2024-04-16T16:17:43.845Z,99478.97
2024-04-16T16:20:11.368Z,99487.59
2024-04-16T16:22:39.523Z,99492.34
2024-04-16T16:25:07.889Z,99489.47
2024-04-16T16:27:35.192Z,99500.13
2024-04-16T16:30:02.474Z,99499.59
2024-04-16T16:32:29.803Z,99509.47
2024-04-16T16:35:09.769Z,99510.38
2024-04-16T16:37:37.239Z,99506.72
2024-04-16T16:40:06.164Z,99509.34
2024-04-16T16:42:34.525Z,99514.69
2024-04-16T16:45:05.019Z,99514.50
2024-04-16T16:47:33.046Z,99516.19
2024-04-16T16:50:00.750Z,99519.16
2024-04-16T16:52:28.361Z,99523.00
2024-04-16T16:54:55.733Z,99522.13
2024-04-16T16:57:23.053Z,99527.03
2024-04-16T16:59:50.376Z,99533.63
2024-04-16T17:02:18.124Z,99535.34
2024-04-16T17:04:45.828Z,99536.66
2024-04-16T17:07:16.419Z,99548.69
2024-04-16T17:09:43.776Z,99544.72
2024-04-16T17:12:11.106Z,99544.41
2024-04-16T17:14:40.861Z,99549.81
2024-04-16T17:17:08.615Z,99551.69
2024-04-16T17:19:35.997Z,99555.16
2024-04-16T17:22:03.864Z,99557.09
2024-04-16T17:24:31.171Z,99557.94
2024-04-16T17:26:58.645Z,99564.81
2024-04-16T17:29:26.408Z,99569.97
2024-04-16T17:31:53.860Z,99572.47
2024-04-16T17:34:21.470Z,99574.59
2024-04-16T17:36:52.301Z,99574.09
2024-04-16T17:39:19.622Z,99585.13
2024-04-16T17:41:47.067Z,99584.50
2024-04-16T17:44:14.483Z,99592.28
2024-04-16T17:46:41.894Z,99598.91
2024-04-16T17:49:09.293Z,99595.47
2024-04-16T17:51:36.623Z,99604.81
2024-04-16T17:54:04.713Z,99606.72
2024-04-16T17:56:32.055Z,99610.03
2024-04-16T17:59:01.413Z,99624.53
2024-04-16T18:01:28.907Z,99624.00
2024-04-16T18:04:01.229Z,99622.63
2024-04-16T18:06:29.522Z,99635.13
2024-04-16T18:08:56.867Z,99627.69
2024-04-16T18:11:24.259Z,99634.31
2024-04-16T18:13:52.374Z,99637.38
2024-04-16T18:16:19.810Z,99645.75
2024-04-16T18:18:54.879Z,99653.09
2024-04-16T18:21:22.223Z,99661.78
2024-04-16T18:23:50.509Z,99658.75
2024-04-16T18:26:17.886Z,99669.16
2024-04-16T18:28:45.253Z,99675.38
2024-04-16T18:31:12.566Z,99673.22
2024-04-16T18:33:40.003Z,99681.50
2024-04-16T18:36:07.571Z,99686.94
2024-04-16T18:38:37.706Z,99703.28
2024-04-16T18:41:06.669Z,99695.81
2024-04-16T18:43:34.069Z,99708.13
2024-04-16T18:46:02.074Z,99712.09
2024-04-16T18:48:29.587Z,99718.50
2024-04-16T18:50:57.025Z,99710.19
2024-04-16T18:53:25.795Z,99708.41
2024-04-16T18:55:54.392Z,99720.66
2024-04-16T18:58:22.346Z,99722.91
2024-04-16T19:00:50.901Z,99722.06
2024-04-16T19:03:19.849Z,99723.72
2024-04-16T19:05:50.580Z,99725.03
2024-04-16T19:08:20.174Z,99733.50
2024-04-16T19:10:47.529Z,99726.88
2024-04-16T19:13:15.101Z,99732.97
2024-04-16T19:15:42.455Z,99742.81
2024-04-16T19:18:10.864Z,99747.19
2024-04-16T19:20:38.378Z,99752.56
2024-04-16T19:23:05.857Z,99758.94
2024-04-16T19:25:33.298Z,99753.06
2024-04-16T19:28:00.663Z,99760.06
2024-04-16T19:30:28.024Z,99765.56
2024-04-16T19:32:55.534Z,99763.75
2024-04-16T19:35:22.923Z,99776.84
2024-04-16T19:37:51.772Z,99776.91
2024-04-16T19:40:19.332Z,99777.84
2024-04-16T19:42:48.432Z,99774.94
2024-04-16T19:45:16.080Z,99775.13
2024-04-16T19:47:43.869Z,99782.16
2024-04-16T19:50:11.347Z,99783.44
2024-04-16T19:52:38.725Z,99785.22
2024-04-16T19:55:07.338Z,99789.91
2024-04-16T19:57:34.902Z,99796.38
2024-04-16T20:00:05.992Z,99801.91
2024-04-16T20:02:33.710Z,99799.63
2024-04-16T20:05:01.174Z,99803.38
2024-04-16T20:07:28.544Z,99805.50
2024-04-16T20:09:56.094Z,99816.53
2024-04-16T20:12:23.929Z,99813.53
2024-04-16T20:14:51.324Z,99819.06
2024-04-16T20:17:18.621Z,99822.47
2024-04-16T20:19:46.073Z,99826.97
2024-04-16T20:22:13.456Z,99821.09
2024-04-16T20:24:40.781Z,99828.97
2024-04-16T20:27:08.289Z,99834.41
2024-04-16T20:29:36.273Z,99835.09
2024-04-16T20:32:03.785Z,99842.31
2024-04-16T20:34:40.064Z,99843.13
2024-04-16T20:37:12.161Z,99851.03
2024-04-16T20:39:39.600Z,99843.28
2024-04-16T20:42:06.936Z,99848.59
2024-04-16T20:44:34.282Z,99850.09
2024-04-16T20:47:01.672Z,99855.56
2024-04-16T20:49:29.026Z,99855.66
2024-04-16T20:51:56.321Z,99860.88
2024-04-16T20:54:23.636Z,99859.97
2024-04-16T20:56:50.968Z,99857.22
2024-04-16T20:59:18.312Z,99866.59
2024-04-16T21:01:45.728Z,99865.44
2024-04-16T21:04:13.094Z,99864.75
2024-04-16T21:06:40.436Z,99867.56
2024-04-16T21:09:07.736Z,99873.84
2024-04-16T21:11:35.172Z,99874.69
2024-04-16T21:14:02.552Z,99880.69
2024-04-16T21:16:29.987Z,99878.09
2024-04-16T21:18:57.297Z,99881.63
2024-04-16T21:21:24.627Z,99884.28
2024-04-16T21:23:53.090Z,99884.31
2024-04-16T21:26:20.454Z,99884.13
2024-04-16T21:28:47.798Z,99885.72
2024-04-16T21:31:15.121Z,99882.94
2024-04-16T21:33:42.473Z,99879.22
2024-04-16T21:36:09.829Z,99871.66
2024-04-16T21:38:38.304Z,99880.22
2024-04-16T21:41:05.731Z,99887.25
2024-04-16T21:43:33.071Z,99893.50
2024-04-16T21:46:00.437Z,99892.47
2024-04-16T21:48:27.802Z,99897.19
2024-04-16T21:50:56.885Z,99903.97
2024-04-16T21:53:25.009Z,99895.69
2024-04-16T21:55:52.415Z,99896.38
2024-04-16T21:58:19.866Z,99902.41
2024-04-16T22:00:47.274Z,99898.47
2024-04-16T22:03:14.605Z,99899.59
2024-04-16T22:05:42.016Z,99911.63
2024-04-16T22:08:09.325Z,99914.16
2024-04-16T22:10:36.644Z,99916.22
2024-04-16T22:13:04.068Z,99916.72
2024-04-16T22:15:31.420Z,99916.03
2024-04-16T22:17:58.787Z,99932.59
2024-04-16T22:20:26.119Z,99920.38
2024-04-16T22:22:53.474Z,99929.34
2024-04-16T22:25:23.264Z,99926.84
2024-04-16T22:27:50.653Z,99933.28
2024-04-16T22:30:17.991Z,99935.72
2024-04-16T22:32:46.966Z,99942.72
2024-04-16T22:35:14.363Z,99949.66
2024-04-16T22:37:41.756Z,99947.25
2024-04-16T22:40:09.520Z,99958.69
2024-04-16T22:42:37.200Z,99952.34
2024-04-16T22:45:04.702Z,99958.44
2024-04-16T22:47:32.041Z,99959.97
2024-04-16T22:49:59.756Z,99968.59
2024-04-16T22:52:30.316Z,99958.31
2024-04-16T22:54:57.633Z,99965.53
2024-04-16T22:57:24.923Z,99971.78
2024-04-16T22:59:52.301Z,99969.03
2024-04-16T23:02:19.861Z,99970.09
2024-04-16T23:04:47.560Z,99967.09
2024-04-16T23:07:14.982Z,99979.09
2024-04-16T23:09:42.281Z,99981.41
2024-04-16T23:12:10.080Z,99978.09
2024-04-16T23:14:37.408Z,99983.69
2024-04-16T23:17:04.781Z,99982.00
2024-04-16T23:19:32.083Z,99987.47
2024-04-16T23:21:59.393Z,99989.03
2024-04-16T23:24:26.683Z,99993.53
2024-04-16T23:26:53.973Z,99993.97
2024-04-16T23:29:21.244Z,100006.69
2024-04-16T23:31:48.632Z,100009.22
2024-04-16T23:34:15.976Z,100008.25
2024-04-16T23:36:43.283Z,100011.78
2024-04-16T23:39:10.612Z,100009.22
2024-04-16T23:41:37.912Z,100014.69
2024-04-16T23:44:05.353Z,100013.00
2024-04-16T23:46:32.671Z,100012.81
2024-04-16T23:49:00.013Z,100010.38
2024-04-16T23:51:27.297Z,100025.13
2024-04-16T23:53:54.618Z,100022.66
2024-04-16T23:56:21.941Z,100026.34
2024-04-16T23:58:50.251Z,100025.38
